Time;durP1;ratioP1;P1;durP2;ratioP2;P2;SDS_P1;SDS_P2;PMS_P1;PMS_P2;Temp;Humidity;BMP_temperature;BMP_pressure;BME280_temperature;BME280_humidity;BME280_pressure;Samples;Min_cycle;Max_cycle;Signal;HPM_P1;HPM_P2
2023/12/07 00:00:12;;;;;;;998.70;907.67;;;-0.30;99.90;;;;;;4992104;28;20450;-74
2023/12/07 00:02:39;;;;;;;1005.90;914.43;;;-0.20;99.90;;;;;;4991978;28;20533;-74
2023/12/07 00:05:06;;;;;;;1007.33;915.60;;;-0.30;99.90;;;;;;4992322;28;20456;-74
2023/12/07 00:07:33;;;;;;;1009.83;916.60;;;-0.20;99.90;;;;;;4992025;28;20885;-74
2023/12/07 00:10:00;;;;;;;1002.90;911.13;;;-0.20;99.90;;;;;;4991894;28;20537;-74
2023/12/07 00:12:27;;;;;;;1009.83;919.80;;;-0.30;99.90;;;;;;4991805;28;20195;-74
2023/12/07 00:14:55;;;;;;;1009.83;918.00;;;-0.30;99.90;;;;;;4992150;28;20911;-74
2023/12/07 00:17:22;;;;;;;1003.00;910.83;;;-0.30;99.90;;;;;;4991963;28;20490;-74
2023/12/07 00:19:53;;;;;;;1008.10;916.17;;;0.00;99.90;;;;;;4991906;28;20450;-74
2023/12/07 00:22:20;;;;;;;996.80;905.50;;;-0.10;99.90;;;;;;4991744;28;20818;-74
2023/12/07 00:24:47;;;;;;;992.40;903.00;;;-0.10;99.90;;;;;;4992097;28;20450;-74
2023/12/07 00:27:14;;;;;;;1006.60;915.00;;;-0.10;99.90;;;;;;4991817;28;20456;-74
2023/12/07 00:29:41;;;;;;;1007.30;918.50;;;-0.20;99.90;;;;;;4992166;28;20450;-74
2023/12/07 00:32:09;;;;;;;1015.13;925.77;;;-0.30;99.90;;;;;;4991545;28;20950;-74
2023/12/07 00:34:36;;;;;;;1022.90;932.20;;;-0.30;99.90;;;;;;4991588;28;20556;-74
2023/12/07 00:37:03;;;;;;;1010.78;925.03;;;-0.40;99.90;;;;;;4991579;28;20285;-74
2023/12/07 00:39:30;;;;;;;1007.13;920.03;;;-0.50;99.90;;;;;;4991838;28;20709;-74
2023/12/07 00:41:57;;;;;;;988.60;903.13;;;-0.50;99.90;;;;;;4991742;28;20460;-74
2023/12/07 00:44:24;;;;;;;984.47;900.83;;;-0.40;99.90;;;;;;4991733;28;20985;-74
2023/12/07 00:46:51;;;;;;;985.70;902.72;;;-0.40;99.90;;;;;;4991527;28;20938;-74
2023/12/07 00:49:19;;;;;;;1004.60;921.80;;;-0.30;99.90;;;;;;4991666;28;20686;-74
2023/12/07 00:51:46;;;;;;;1002.87;919.03;;;-0.40;99.90;;;;;;4993984;28;20616;-74
2023/12/07 00:54:13;;;;;;;1022.22;936.13;;;-0.40;99.90;;;;;;4995321;28;20851;-74
2023/12/07 00:56:40;;;;;;;1020.20;932.57;;;-0.40;99.90;;;;;;4995348;28;20662;-74
2023/12/07 00:59:07;;;;;;;1044.72;954.38;;;-0.50;99.90;;;;;;4995445;28;20450;-74
2023/12/07 01:01:34;;;;;;;1034.93;947.13;;;-0.40;99.90;;;;;;4994814;28;20542;-74
2023/12/07 01:04:01;;;;;;;1027.40;939.23;;;-0.50;99.90;;;;;;4994819;28;20488;-74
2023/12/07 01:06:29;;;;;;;1029.70;939.80;;;-0.50;99.90;;;;;;4995106;28;20454;-74
2023/12/07 01:08:56;;;;;;;1017.10;930.33;;;-0.40;99.90;;;;;;4994837;28;20450;-74
2023/12/07 01:11:23;;;;;;;1006.73;920.97;;;-0.40;99.90;;;;;;4994618;28;20540;-74
2023/12/07 01:13:50;;;;;;;1007.53;921.90;;;-0.50;99.90;;;;;;4994813;28;20561;-74
2023/12/07 01:16:17;;;;;;;1022.37;937.10;;;-0.60;99.90;;;;;;4994652;28;20536;-74
2023/12/07 01:18:44;;;;;;;995.50;912.80;;;-0.70;99.90;;;;;;4994459;28;20450;-74
2023/12/07 01:21:12;;;;;;;975.63;895.43;;;-0.70;99.90;;;;;;4994719;28;20481;-74
2023/12/07 01:23:40;;;;;;;958.90;878.93;;;-0.70;99.90;;;;;;4994453;28;20458;-74
2023/12/07 01:26:07;;;;;;;979.47;896.77;;;-0.60;99.90;;;;;;4994423;28;20945;-74
2023/12/07 01:28:34;;;;;;;1002.77;917.20;;;-0.60;99.90;;;;;;4994515;28;20457;-74
2023/12/07 01:31:01;;;;;;;988.53;905.43;;;-0.70;99.90;;;;;;4994336;28;20529;-74
2023/12/07 01:33:27;;;;;;;992.72;907.55;;;-0.60;99.90;;;;;;4994296;28;20486;-74
2023/12/07 01:35:54;;;;;;;993.60;908.10;;;-0.30;99.90;;;;;;4994527;28;20577;-74
2023/12/07 01:38:21;;;;;;;990.17;905.83;;;-0.20;99.90;;;;;;4994210;28;20450;-74
2023/12/07 01:40:50;;;;;;;1004.23;918.70;;;-0.10;99.90;;;;;;4994456;28;20549;-74
2023/12/07 01:43:16;;;;;;;1001.30;915.20;;;0.00;99.90;;;;;;4993979;28;20942;-74
2023/12/07 01:45:43;;;;;;;988.10;902.00;;;0.20;99.90;;;;;;4994063;28;20452;-74
2023/12/07 01:48:10;;;;;;;982.77;897.30;;;0.20;99.90;;;;;;4994051;28;20937;-74
2023/12/07 01:50:38;;;;;;;988.73;903.83;;;0.00;99.90;;;;;;4994204;28;20457;-74
2023/12/07 01:53:05;;;;;;;989.33;905.67;;;-0.10;99.90;;;;;;4993997;28;20486;-74
2023/12/07 01:55:33;;;;;;;1005.53;921.70;;;-0.30;99.90;;;;;;4994065;28;20856;-74
2023/12/07 01:58:01;;;;;;;1009.30;925.80;;;-0.40;99.90;;;;;;4993883;28;20540;-74
2023/12/07 02:00:28;;;;;;;1003.47;921.87;;;-0.50;99.90;;;;;;4993878;28;21227;-74
2023/12/07 02:02:55;;;;;;;987.57;907.83;;;-0.60;99.90;;;;;;4993026;28;20454;-74
2023/12/07 02:05:23;;;;;;;945.13;869.13;;;-0.60;99.90;;;;;;4994113;28;20450;-74
2023/12/07 02:07:50;;;;;;;965.63;887.13;;;-0.80;99.90;;;;;;4993773;28;20195;-74
2023/12/07 02:10:19;;;;;;;996.20;913.70;;;-0.80;99.90;;;;;;4993633;28;20454;-74
2023/12/07 02:12:47;;;;;;;992.33;910.33;;;-0.80;99.90;;;;;;4993452;28;20458;-74
2023/12/07 02:15:16;;;;;;;982.47;902.87;;;-0.70;99.90;;;;;;4993550;28;20592;-74
2023/12/07 02:17:52;;;;;;;994.97;912.43;;;-1.00;99.90;;;;;;4993648;28;20989;-74
2023/12/07 02:20:27;;;;;;;1000.87;918.17;;;-0.90;99.90;;;;;;4993550;28;20457;-74
2023/12/07 02:22:56;;;;;;;982.73;902.10;;;-0.90;99.90;;;;;;4993449;28;20489;-74
2023/12/07 02:25:27;;;;;;;987.50;906.07;;;-0.90;99.90;;;;;;4993356;28;21009;-74
2023/12/07 02:27:55;;;;;;;968.10;889.27;;;-0.90;99.90;;;;;;4993473;28;20460;-74
2023/12/07 02:30:22;;;;;;;943.57;866.87;;;-0.90;99.90;;;;;;4993440;28;20462;-74
2023/12/07 02:32:49;;;;;;;982.55;902.35;;;-1.00;99.90;;;;;;4992795;28;20557;-74
2023/12/07 02:35:16;;;;;;;969.20;891.60;;;-1.00;99.90;;;;;;4993365;28;20223;-74
2023/12/07 02:37:45;;;;;;;949.93;873.27;;;-1.10;99.90;;;;;;4993180;28;20450;-74
2023/12/07 02:40:14;;;;;;;989.67;904.95;;;-1.10;99.90;;;;;;4993109;28;20454;-74
2023/12/07 02:42:43;;;;;;;975.43;895.03;;;-1.00;99.90;;;;;;4993173;28;20330;-75
2023/12/07 02:45:12;;;;;;;950.83;872.80;;;-1.00;99.90;;;;;;4993044;28;20454;-74
2023/12/07 02:47:40;;;;;;;955.90;876.83;;;-1.10;99.90;;;;;;4993011;28;20492;-74
2023/12/07 02:50:08;;;;;;;955.17;875.58;;;-1.10;99.90;;;;;;4992963;28;20454;-74
2023/12/07 02:52:36;;;;;;;981.37;898.10;;;-1.00;99.90;;;;;;4992634;28;20250;-74
2023/12/07 02:55:03;;;;;;;963.53;883.10;;;-0.90;99.90;;;;;;4992992;28;20497;-74
2023/12/07 02:57:30;;;;;;;959.53;880.03;;;-1.00;99.90;;;;;;4992991;28;20461;-74
2023/12/07 02:59:57;;;;;;;896.37;819.77;;;-0.90;99.90;;;;;;4992931;28;20449;-75
2023/12/07 03:02:25;;;;;;;907.17;831.27;;;-1.00;99.90;;;;;;4992746;28;20504;-75
2023/12/07 03:04:53;;;;;;;930.37;853.10;;;-1.10;99.90;;;;;;4992684;28;20465;-74
2023/12/07 03:07:20;;;;;;;926.50;850.43;;;-1.20;99.90;;;;;;4992509;28;20464;-75
2023/12/07 03:09:46;;;;;;;942.17;863.33;;;-1.20;99.90;;;;;;4992937;28;20449;-74
2023/12/07 03:12:13;;;;;;;954.30;874.60;;;-1.10;99.90;;;;;;4992578;28;20454;-74
2023/12/07 03:14:40;;;;;;;932.57;853.80;;;-1.10;99.90;;;;;;4991660;28;20490;-74
2023/12/07 03:17:07;;;;;;;932.60;854.00;;;-1.10;99.90;;;;;;4992593;28;20528;-74
2023/12/07 03:19:38;;;;;;;928.77;851.17;;;-1.20;99.90;;;;;;4992443;28;20465;-74
2023/12/07 03:22:06;;;;;;;931.88;852.83;;;-1.10;99.90;;;;;;4992633;28;20450;-74
2023/12/07 03:24:33;;;;;;;902.75;826.72;;;-1.10;99.90;;;;;;4992547;28;20254;-75
2023/12/07 03:27:00;;;;;;;904.57;829.20;;;-1.20;99.90;;;;;;4992470;28;20199;-74
2023/12/07 03:29:27;;;;;;;896.47;820.83;;;-1.00;99.90;;;;;;4992534;28;20456;-74
2023/12/07 03:31:54;;;;;;;901.70;826.00;;;-0.90;99.90;;;;;;4992208;28;20454;-74
2023/12/07 03:34:21;;;;;;;908.60;831.60;;;-1.10;99.90;;;;;;4992264;28;20561;-74
2023/12/07 03:36:49;;;;;;;936.70;858.27;;;-1.00;99.90;;;;;;4992209;28;20450;-74
2023/12/07 03:39:18;;;;;;;959.20;876.35;;;-1.10;99.90;;;;;;4992458;28;20446;-74
2023/12/07 03:41:45;;;;;;;933.47;853.47;;;-0.90;99.90;;;;;;4992092;28;20214;-74
2023/12/07 03:44:12;;;;;;;922.17;843.10;;;-0.90;99.90;;;;;;4992300;28;20474;-74
2023/12/07 03:46:39;;;;;;;904.47;827.83;;;-1.00;99.90;;;;;;4992136;28;20195;-74
2023/12/07 03:49:06;;;;;;;892.23;817.80;;;-1.10;99.90;;;;;;4992462;28;20542;-74
2023/12/07 03:51:36;;;;;;;920.03;843.93;;;-1.10;99.90;;;;;;4992339;28;20541;-74
2023/12/07 03:54:05;;;;;;;914.13;836.83;;;-1.10;99.90;;;;;;4992155;28;20957;-74
2023/12/07 03:56:33;;;;;;;930.13;849.20;;;-1.10;99.90;;;;;;4992084;28;21022;-74
2023/12/07 03:59:00;;;;;;;912.40;835.20;;;-1.00;99.90;;;;;;4991908;28;20462;-74
2023/12/07 04:01:29;;;;;;;914.73;836.87;;;-1.00;99.90;;;;;;4991914;28;20549;-74
2023/12/07 04:03:57;;;;;;;894.07;817.97;;;-0.90;99.90;;;;;;4992148;28;20462;-74
2023/12/07 04:06:24;;;;;;;880.43;806.93;;;-1.10;99.90;;;;;;4992266;28;20464;-74
2023/12/07 04:08:52;;;;;;;844.00;772.70;;;-1.10;99.90;;;;;;4992155;28;20454;-74
2023/12/07 04:11:21;;;;;;;860.58;789.65;;;-1.20;99.90;;;;;;4991854;28;20457;-74
2023/12/07 04:13:48;;;;;;;867.23;795.43;;;-1.20;99.90;;;;;;4992018;28;20199;-74
2023/12/07 04:16:15;;;;;;;867.17;792.73;;;-1.20;99.90;;;;;;4992127;28;21015;-75
2023/12/07 04:18:43;;;;;;;842.23;771.40;;;-1.30;99.90;;;;;;4991932;28;20457;-75
2023/12/07 04:21:10;;;;;;;857.58;784.33;;;-1.30;99.90;;;;;;4991966;28;20478;-74
2023/12/07 04:23:37;;;;;;;887.83;814.03;;;-1.30;99.90;;;;;;4991971;28;20291;-74
2023/12/07 04:26:04;;;;;;;886.05;811.30;;;-1.30;99.90;;;;;;4993369;28;20992;-74
2023/12/07 04:28:32;;;;;;;876.50;802.80;;;-1.30;99.90;;;;;;4995541;28;20210;-74
2023/12/07 04:30:59;;;;;;;840.85;770.97;;;-1.30;99.90;;;;;;4995558;28;20482;-75
2023/12/07 04:33:26;;;;;;;841.55;770.38;;;-1.30;99.90;;;;;;4995495;28;20219;-74
2023/12/07 04:35:53;;;;;;;828.47;758.30;;;-1.40;99.90;;;;;;4995568;28;20223;-74
2023/12/07 04:38:20;;;;;;;833.50;762.40;;;-1.40;99.90;;;;;;4995689;28;20235;-75
2023/12/07 04:40:47;;;;;;;867.40;795.33;;;-1.40;99.90;;;;;;4995495;28;20457;-74
2023/12/07 04:43:14;;;;;;;830.43;759.63;;;-1.40;99.90;;;;;;4995124;28;20544;-74
2023/12/07 04:45:42;;;;;;;818.67;748.80;;;-1.40;99.90;;;;;;4995509;28;20449;-74
2023/12/07 04:48:09;;;;;;;800.15;733.05;;;-1.50;99.90;;;;;;4995431;28;20450;-74
2023/12/07 04:50:36;;;;;;;832.00;764.07;;;-1.50;99.90;;;;;;4995296;28;20655;-74
2023/12/07 04:53:03;;;;;;;855.40;784.30;;;-1.60;99.90;;;;;;4995080;28;20481;-74
2023/12/07 04:55:30;;;;;;;833.37;764.47;;;-1.50;99.90;;;;;;4994992;28;20560;-74
2023/12/07 04:57:57;;;;;;;852.33;782.17;;;-1.50;99.90;;;;;;4995071;28;20458;-74
2023/12/07 05:00:24;;;;;;;852.07;780.57;;;-1.40;99.90;;;;;;4995287;28;20826;-75
2023/12/07 05:02:52;;;;;;;836.90;767.07;;;-1.40;99.90;;;;;;4994569;28;20458;-75
2023/12/07 05:05:19;;;;;;;825.40;754.70;;;-1.30;99.90;;;;;;4994859;28;20888;-74
2023/12/07 05:07:46;;;;;;;830.93;760.50;;;-1.30;99.90;;;;;;4994862;28;20449;-74
2023/12/07 05:10:13;;;;;;;834.97;762.85;;;-1.20;99.90;;;;;;4994799;28;20931;-74
2023/12/07 05:12:40;;;;;;;836.00;762.47;;;-1.10;99.90;;;;;;4994706;28;20234;-74
2023/12/07 05:15:10;;;;;;;868.10;793.00;;;-1.10;99.90;;;;;;4994857;28;20565;-74
2023/12/07 05:17:37;;;;;;;851.93;778.93;;;-1.10;99.90;;;;;;4994762;28;20534;-75
2023/12/07 05:20:07;;;;;;;848.42;774.90;;;-1.20;99.90;;;;;;4994733;28;20541;-75
2023/12/07 05:22:33;;;;;;;846.00;773.07;;;-1.10;99.90;;;;;;4994452;28;20199;-74
2023/12/07 05:25:00;;;;;;;861.63;788.83;;;-1.10;99.90;;;;;;4994846;28;20449;-74
2023/12/07 05:27:27;;;;;;;833.57;761.77;;;-1.00;99.90;;;;;;4993806;28;20493;-74
2023/12/07 05:29:54;;;;;;;855.20;780.70;;;-1.00;99.90;;;;;;4994266;28;20460;-74
2023/12/07 05:32:21;;;;;;;857.67;783.87;;;-1.00;99.90;;;;;;4994130;28;20493;-75
2023/12/07 05:34:48;;;;;;;837.30;766.70;;;-1.00;99.90;;;;;;4994216;28;20565;-73
2023/12/07 05:37:16;;;;;;;833.08;759.58;;;-1.10;99.90;;;;;;4993275;28;20547;-73
2023/12/07 05:39:43;;;;;;;851.90;778.03;;;-1.10;99.90;;;;;;4994073;28;20202;-73
2023/12/07 05:42:10;;;;;;;845.03;772.87;;;-1.00;99.90;;;;;;4993679;28;20203;-73
2023/12/07 05:44:38;;;;;;;883.37;809.33;;;-1.10;99.90;;;;;;4994205;28;20486;-73
2023/12/07 05:47:05;;;;;;;899.20;823.43;;;-1.10;99.90;;;;;;4994151;28;20446;-73
2023/12/07 05:49:32;;;;;;;909.47;831.73;;;-1.20;99.90;;;;;;4993708;28;20457;-73
2023/12/07 05:51:59;;;;;;;888.90;813.40;;;-1.20;99.90;;;;;;4993831;28;20653;-73
2023/12/07 05:54:27;;;;;;;883.30;807.03;;;-1.00;99.90;;;;;;4993898;28;20454;-73
2023/12/07 05:56:54;;;;;;;879.80;804.90;;;-1.00;99.90;;;;;;4993622;28;21101;-73
2023/12/07 05:59:21;;;;;;;867.97;793.67;;;-0.90;99.90;;;;;;4994068;28;20454;-73
2023/12/07 06:01:48;;;;;;;840.72;770.53;;;-1.00;99.90;;;;;;4993576;28;20454;-73
2023/12/07 06:04:16;;;;;;;876.87;804.27;;;-1.00;99.90;;;;;;4993583;28;20290;-73
2023/12/07 06:06:43;;;;;;;888.23;814.90;;;-1.10;99.90;;;;;;4993784;28;20490;-73
2023/12/07 06:09:10;;;;;;;916.30;841.87;;;-1.10;99.90;;;;;;4993691;28;20485;-73
2023/12/07 06:11:39;;;;;;;886.63;812.23;;;-1.00;99.90;;;;;;4993268;28;20461;-73
2023/12/07 06:14:06;;;;;;;880.40;807.90;;;-1.00;99.90;;;;;;4993625;28;20481;-73
2023/12/07 06:16:33;;;;;;;882.17;809.65;;;-1.00;99.90;;;;;;4993177;28;20478;-73
2023/12/07 06:19:00;;;;;;;863.77;791.60;;;-1.00;99.90;;;;;;4993308;28;20199;-73
2023/12/07 06:21:29;;;;;;;847.88;776.50;;;-1.00;99.90;;;;;;4993340;28;20456;-73
2023/12/07 06:23:56;;;;;;;857.10;786.53;;;-1.10;99.90;;;;;;4993497;28;20203;-73
2023/12/07 06:26:24;;;;;;;855.70;785.80;;;-1.10;99.90;;;;;;4992971;28;20457;-73
2023/12/07 06:28:52;;;;;;;845.90;776.53;;;-1.10;99.90;;;;;;4993392;28;20205;-73
2023/12/07 06:31:21;;;;;;;864.73;794.77;;;-1.10;99.90;;;;;;4992999;28;20912;-73
2023/12/07 06:33:48;;;;;;;850.53;779.30;;;-1.20;99.90;;;;;;4993087;28;20485;-73
2023/12/07 06:36:20;;;;;;;832.10;762.23;;;-1.20;99.90;;;;;;4992877;28;21015;-73
2023/12/07 06:38:47;;;;;;;825.30;756.50;;;-1.20;99.90;;;;;;4992871;28;20939;-73
2023/12/07 06:41:14;;;;;;;801.47;731.83;;;-1.30;99.90;;;;;;4992635;28;20458;-73
2023/12/07 06:43:41;;;;;;;749.25;684.10;;;-1.40;99.90;;;;;;4992733;28;20290;-73
2023/12/07 06:46:09;;;;;;;749.10;684.58;;;-1.40;99.90;;;;;;4993000;28;20198;-73
2023/12/07 06:48:36;;;;;;;745.55;681.60;;;-1.50;99.90;;;;;;4992806;28;20203;-73
2023/12/07 06:51:03;;;;;;;799.63;733.13;;;-1.50;99.90;;;;;;4992596;28;20206;-73
2023/12/07 06:53:31;;;;;;;801.10;734.10;;;-1.60;99.90;;;;;;4992860;28;20477;-73
2023/12/07 06:55:58;;;;;;;831.47;763.97;;;-1.50;99.90;;;;;;4992448;28;20541;-73
2023/12/07 06:58:25;;;;;;;842.75;774.45;;;-1.40;99.90;;;;;;4992685;28;20839;-73
2023/12/07 07:00:52;;;;;;;841.70;771.78;;;-1.50;99.90;;;;;;4992875;28;20663;-73
2023/12/07 07:03:20;;;;;;;842.92;775.63;;;-1.50;99.90;;;;;;4992604;28;20655;-73
2023/12/07 07:05:47;;;;;;;848.67;778.70;;;-1.60;99.90;;;;;;4992213;28;20277;-73
2023/12/07 07:08:14;;;;;;;804.73;738.27;;;-1.60;99.90;;;;;;4992477;28;20537;-73
2023/12/07 07:10:41;;;;;;;798.67;732.43;;;-1.60;99.90;;;;;;4992641;28;20450;-73
2023/12/07 07:13:07;;;;;;;793.27;728.17;;;-1.70;99.90;;;;;;4992294;28;20536;-73
2023/12/07 07:15:34;;;;;;;747.67;685.97;;;-1.70;99.90;;;;;;4992625;28;20482;-73
2023/12/07 07:18:02;;;;;;;757.10;694.50;;;-1.70;99.90;;;;;;4992508;28;20454;-73
2023/12/07 07:20:31;;;;;;;748.33;686.28;;;-1.70;99.90;;;;;;4992608;28;20225;-73
2023/12/07 07:22:57;;;;;;;748.20;687.30;;;-1.70;99.90;;;;;;4991959;28;20578;-73
2023/12/07 07:25:24;;;;;;;723.77;663.80;;;-1.70;99.90;;;;;;4992092;28;20545;-73
2023/12/07 07:27:52;;;;;;;738.17;676.28;;;-1.80;99.90;;;;;;4992462;28;20458;-73
2023/12/07 07:30:18;;;;;;;730.87;669.30;;;-1.70;99.90;;;;;;4992250;28;20309;-73
2023/12/07 07:32:45;;;;;;;749.10;687.70;;;-1.70;99.90;;;;;;4991947;28;20461;-73
2023/12/07 07:35:12;;;;;;;732.17;670.50;;;-1.70;99.90;;;;;;4992236;28;20454;-73
2023/12/07 07:37:41;;;;;;;735.87;673.33;;;-1.70;99.90;;;;;;4992052;28;20489;-73
2023/12/07 07:40:11;;;;;;;750.03;688.10;;;-1.60;99.90;;;;;;4991905;28;20453;-73
2023/12/07 07:42:39;;;;;;;773.07;708.97;;;-1.60;99.90;;;;;;4991744;28;20203;-73
2023/12/07 07:45:07;;;;;;;786.65;723.00;;;-1.40;99.90;;;;;;4992249;28;20516;-73
2023/12/07 07:47:34;;;;;;;824.67;758.83;;;-1.30;99.90;;;;;;4992089;28;20206;-73
2023/12/07 07:50:05;;;;;;;851.77;781.77;;;-0.90;99.90;;;;;;4993715;28;20562;-73
2023/12/07 07:52:32;;;;;;;831.23;763.23;;;-0.80;99.90;;;;;;5010522;28;20460;-73
2023/12/07 07:55:01;;;;;;;836.40;768.20;;;-0.60;99.90;;;;;;5011240;28;20480;-73
2023/12/07 07:57:28;;;;;;;827.20;760.23;;;-0.50;99.90;;;;;;5010838;28;20488;-73
2023/12/07 07:59:55;;;;;;;833.83;765.23;;;-0.40;99.90;;;;;;5011255;28;20874;-73
2023/12/07 08:02:22;;;;;;;823.17;755.97;;;-0.50;99.90;;;;;;5014497;28;20517;-73
2023/12/07 08:04:49;;;;;;;815.77;749.50;;;-0.50;99.90;;;;;;5014742;28;20198;-73
2023/12/07 08:07:16;;;;;;;841.53;773.10;;;-0.60;99.90;;;;;;5014136;28;20484;-73
2023/12/07 08:09:42;;;;;;;823.08;754.90;;;-0.60;99.90;;;;;;5015287;28;20475;-73
2023/12/07 08:12:11;;;;;;;815.27;748.97;;;-0.70;99.90;;;;;;5014044;28;20232;-73
2023/12/07 08:14:38;;;;;;;832.90;763.03;;;-0.60;99.90;;;;;;5013770;28;20532;-73
2023/12/07 08:17:05;;;;;;;850.43;780.13;;;-0.60;99.90;;;;;;5013790;28;20755;-74
2023/12/07 08:19:32;;;;;;;851.20;782.20;;;-0.50;99.90;;;;;;5013891;28;20504;-73
2023/12/07 08:21:59;;;;;;;856.03;785.80;;;-0.40;99.90;;;;;;5013796;28;20551;-74
2023/12/07 08:24:26;;;;;;;837.97;768.73;;;-0.40;99.90;;;;;;5014392;28;20953;-74
2023/12/07 08:26:53;;;;;;;852.40;781.67;;;-0.30;99.90;;;;;;5015097;28;20451;-74
2023/12/07 08:29:21;;;;;;;845.73;774.77;;;-0.40;99.90;;;;;;5015167;28;20477;-73
2023/12/07 08:31:48;;;;;;;862.33;791.00;;;-0.40;99.90;;;;;;5014807;28;21004;-74
2023/12/07 08:34:15;;;;;;;887.23;814.17;;;-0.30;99.90;;;;;;5014803;28;20984;-74
2023/12/07 08:36:42;;;;;;;890.47;818.03;;;-0.20;99.90;;;;;;5014510;28;20527;-73
2023/12/07 08:39:09;;;;;;;891.30;817.80;;;-0.30;99.90;;;;;;5014698;28;20481;-74
2023/12/07 08:41:37;;;;;;;884.27;810.03;;;-0.10;99.90;;;;;;5014306;28;20202;-74
2023/12/07 08:44:04;;;;;;;890.90;812.47;;;-0.10;99.90;;;;;;5014611;28;20869;-71
2023/12/07 08:46:32;;;;;;;882.60;807.07;;;0.10;99.90;;;;;;5014500;28;20459;-74
2023/12/07 08:48:59;;;;;;;878.67;801.70;;;0.20;99.90;;;;;;5014662;28;20539;-74
2023/12/07 08:51:26;;;;;;;877.53;798.97;;;0.30;99.90;;;;;;5014500;28;20449;-74
2023/12/07 08:53:52;;;;;;;890.47;812.53;;;0.30;99.90;;;;;;5014585;28;20500;-74
2023/12/07 08:56:20;;;;;;;885.83;805.30;;;0.30;99.90;;;;;;5014277;28;20480;-74
2023/12/07 08:58:46;;;;;;;890.33;809.30;;;0.40;99.90;;;;;;5014506;28;20459;-74
2023/12/07 09:01:13;;;;;;;901.23;820.30;;;0.40;99.90;;;;;;5014057;28;20455;-74
2023/12/07 09:03:42;;;;;;;906.27;823.40;;;0.60;99.90;;;;;;5014637;28;20449;-74
2023/12/07 09:06:09;;;;;;;913.03;828.00;;;0.50;99.90;;;;;;5014299;28;20449;-74
2023/12/07 09:08:36;;;;;;;927.43;839.87;;;0.70;99.90;;;;;;5014274;28;20543;-75
2023/12/07 09:11:03;;;;;;;951.33;860.45;;;0.70;99.90;;;;;;5012499;28;20542;-74
2023/12/07 09:13:30;;;;;;;958.23;866.53;;;0.80;99.90;;;;;;5014171;28;20249;-74
2023/12/07 09:15:57;;;;;;;963.87;871.27;;;0.80;99.90;;;;;;5012347;28;20478;-74
2023/12/07 09:18:25;;;;;;;959.70;864.83;;;0.90;99.90;;;;;;5014084;28;20507;-74
2023/12/07 09:20:53;;;;;;;964.47;869.07;;;0.80;99.90;;;;;;5014128;28;20449;-74
2023/12/07 09:23:20;;;;;;;966.13;868.70;;;0.90;99.90;;;;;;5013966;28;20574;-74
2023/12/07 09:25:47;;;;;;;975.20;875.07;;;0.90;99.90;;;;;;5014104;28;20457;-74
2023/12/07 09:28:14;;;;;;;977.30;875.27;;;0.90;99.90;;;;;;5013958;28;20453;-74
2023/12/07 09:30:40;;;;;;;968.00;862.60;;;1.00;99.90;;;;;;5013909;28;20449;-73
2023/12/07 09:33:07;;;;;;;981.07;859.03;;;1.10;99.90;;;;;;5013736;28;20484;-73
2023/12/07 09:35:34;;;;;;;995.27;853.87;;;1.10;99.90;;;;;;5013840;28;20457;-74
2023/12/07 09:38:02;;;;;;;1036.03;857.47;;;1.10;99.90;;;;;;5013618;28;20484;-73
2023/12/07 09:40:31;;;;;;;1053.13;858.53;;;1.20;99.90;;;;;;5013784;28;20464;-74
2023/12/07 09:42:58;;;;;;;1100.23;880.63;;;1.20;99.90;;;;;;5013264;28;20449;-74
2023/12/07 09:45:25;;;;;;;1106.13;877.33;;;1.30;99.90;;;;;;5013606;28;20541;-74
2023/12/07 09:47:53;;;;;;;1111.67;862.80;;;1.30;99.90;;;;;;5013451;28;20507;-75
2023/12/07 09:50:22;;;;;;;1117.03;869.37;;;1.30;99.90;;;;;;5013701;28;20457;-74
2023/12/07 09:52:50;;;;;;;1130.13;877.00;;;1.40;99.90;;;;;;5013341;28;20492;-74
2023/12/07 09:55:19;;;;;;;1108.13;857.63;;;1.40;99.90;;;;;;5013513;28;20606;-74
2023/12/07 09:57:47;;;;;;;1113.83;853.40;;;1.50;99.90;;;;;;5013477;28;20578;-74
2023/12/07 10:00:15;;;;;;;1119.30;856.70;;;1.50;99.90;;;;;;5013500;28;20454;-74
2023/12/07 10:02:43;;;;;;;1138.17;883.10;;;1.60;99.90;;;;;;5013236;28;20457;-74
2023/12/07 10:05:13;;;;;;;1124.40;876.03;;;1.60;99.90;;;;;;5013290;28;20954;-74
2023/12/07 10:07:41;;;;;;;1110.33;882.80;;;1.60;99.90;;;;;;5013485;28;20804;-74
2023/12/07 10:10:11;;;;;;;1113.43;884.63;;;1.60;99.90;;;;;;5013087;28;20454;-75
2023/12/07 10:12:47;;;;;;;1128.53;886.13;;;1.70;99.90;;;;;;5012932;28;20453;-77
2023/12/07 10:15:15;;;;;;;1106.70;880.47;;;1.80;99.90;;;;;;5012963;28;20452;-77
2023/12/07 10:17:47;;;;;;;1100.43;877.60;;;1.80;99.90;;;;;;5012919;28;20481;-77
2023/12/07 10:20:15;;;;;;;1101.50;873.63;;;1.90;99.90;;;;;;5013111;28;20480;-78
2023/12/07 10:22:42;;;;;;;1124.40;879.93;;;2.00;99.90;;;;;;5012440;28;20454;-78
2023/12/07 10:25:11;;;;;;;1110.03;893.87;;;2.00;99.90;;;;;;5012945;28;20517;-77
2023/12/07 10:27:40;;;;;;;1093.40;891.03;;;2.00;99.90;;;;;;5012371;28;20451;-77
2023/12/07 10:30:11;;;;;;;1083.43;899.57;;;2.10;99.90;;;;;;5011396;28;20453;-77
2023/12/07 10:32:39;;;;;;;1085.67;888.23;;;2.10;99.90;;;;;;5454560;23;20477;-65
2023/12/07 10:35:09;;;;;;;1095.23;883.37;;;2.20;99.90;;;;;;5032368;28;20454;-64
2023/12/07 10:37:36;;;;;;;1102.93;896.13;;;2.30;99.90;;;;;;5032125;28;20489;-64
2023/12/07 10:40:05;;;;;;;1095.20;891.33;;;2.40;99.90;;;;;;5032517;28;20458;-65
2023/12/07 10:42:38;;;;;;;1090.20;887.50;;;2.40;99.90;;;;;;5029910;28;20452;-65
2023/12/07 10:45:08;;;;;;;1062.17;882.57;;;2.50;99.90;;;;;;5029546;28;20476;-65
2023/12/07 10:47:38;;;;;;;1028.37;881.30;;;2.60;99.90;;;;;;5030875;28;20541;-65
2023/12/07 10:50:12;;;;;;;978.30;866.03;;;2.70;99.90;;;;;;5029416;28;20458;-65
2023/12/07 10:52:46;;;;;;;975.33;871.90;;;2.80;99.90;;;;;;5031228;28;20473;-64
2023/12/07 10:55:17;;;;;;;971.77;868.47;;;2.80;99.90;;;;;;5030874;28;20450;-64
2023/12/07 10:57:46;;;;;;;971.07;869.27;;;3.00;99.90;;;;;;5032404;28;20473;-64
2023/12/07 11:00:15;;;;;;;975.70;873.33;;;2.90;99.90;;;;;;5031569;28;20451;-64
2023/12/07 11:02:44;;;;;;;966.53;864.50;;;2.90;99.90;;;;;;5031440;28;20464;-65
2023/12/07 11:05:11;;;;;;;981.90;880.30;;;3.00;99.90;;;;;;5031891;28;20450;-64
2023/12/07 11:07:47;;;;;;;973.50;878.77;;;3.00;99.90;;;;;;5031473;28;20949;-64
2023/12/07 11:10:21;;;;;;;967.93;876.77;;;3.00;99.90;;;;;;5031507;28;20461;-65
2023/12/07 11:12:57;;;;;;;965.10;878.43;;;3.10;99.90;;;;;;5031414;28;20458;-64
2023/12/07 11:15:26;;;;;;;973.97;888.13;;;3.10;99.90;;;;;;5030832;28;20451;-65
2023/12/07 11:17:55;;;;;;;984.83;909.27;;;3.20;99.90;;;;;;5031805;28;20555;-65
2023/12/07 11:20:32;;;;;;;993.40;915.90;;;3.20;99.90;;;;;;5031926;28;20462;-65
2023/12/07 11:23:00;;;;;;;978.57;909.30;;;3.20;99.90;;;;;;5031577;28;20538;-65
2023/12/07 11:25:27;;;;;;;956.07;894.23;;;3.20;99.90;;;;;;5031892;28;20451;-65
2023/12/07 11:28:01;;;;;;;903.73;849.37;;;3.50;99.90;;;;;;5031591;28;20810;-65
2023/12/07 11:30:32;;;;;;;549.57;524.23;;;3.90;99.90;;;;;;5031675;28;20483;-63
2023/12/07 11:32:59;;;;;;;170.53;162.37;;;4.40;99.90;;;;;;5031142;28;20824;-64
2023/12/07 11:35:26;;;;;;;49.60;45.30;;;4.70;99.90;;;;;;5031113;28;20451;-64
2023/12/07 11:38:04;;;;;;;31.57;28.60;;;5.10;99.90;;;;;;5031517;28;20481;-64
2023/12/07 11:40:32;;;;;;;22.43;19.03;;;5.60;99.90;;;;;;5031676;28;20538;-64
2023/12/07 11:43:01;;;;;;;23.67;18.63;;;5.80;99.90;;;;;;5031320;28;20462;-64
2023/12/07 11:45:42;;;;;;;24.70;19.07;;;6.10;99.90;;;;;;5031602;28;20446;-65
2023/12/07 11:48:12;;;;;;;19.70;16.37;;;6.20;99.90;;;;;;5031342;28;20525;-65
2023/12/07 11:50:58;;;;;;;23.37;17.20;;;6.20;99.80;;;;;;5031689;28;20481;-65
2023/12/07 11:53:26;;;;;;;20.60;15.80;;;5.90;99.90;;;;;;5031450;28;20810;-65
2023/12/07 11:55:53;;;;;;;24.70;17.73;;;6.00;99.90;;;;;;5031369;28;20822;-65
2023/12/07 11:58:21;;;;;;;19.80;15.13;;;6.00;99.70;;;;;;5031035;28;20475;-66
2023/12/07 12:00:53;;;;;;;25.43;17.40;;;6.10;99.70;;;;;;5031299;28;20451;-66
2023/12/07 12:03:20;;;;;;;22.30;15.30;;;6.30;99.10;;;;;;5031118;28;20455;-66
2023/12/07 12:05:47;;;;;;;22.57;18.30;;;6.70;98.50;;;;;;5031303;28;20818;-66
2023/12/07 12:08:15;;;;;;;23.33;18.83;;;6.60;96.80;;;;;;5031338;28;20452;-66
2023/12/07 12:10:43;;;;;;;18.47;15.27;;;6.30;96.60;;;;;;5031281;28;20467;-66
2023/12/07 12:13:10;;;;;;;18.43;14.87;;;6.30;96.60;;;;;;5031058;28;20954;-66